Davidson, NC

12:13 AM EDT on October 25, 2014 (GMT -0400)
Concord Regional | Change Station
CLOSE
Current Station
Airport
Location: Concord,
Elevation: 689 ft
Nearby Weather Stations

Elev 689 ft 35.39 °N, 80.71 °W | Updated 18 minutes ago

Clear
Clear
43 °F
Feels Like 43 °F
N
0
Wind Variable Wind from North

Today
High -- | Low -- °F
--% Chance of Precip.
Yesterday
High -- | Low -- °F
Precip. -- in
7:38 AM 6:35 PM
New Moon, 2% visible
Pressure 30.05 in
Visibility 7.0 miles
Clouds Clear
Dew Point 41 °F
Humidity 93%
Rainfall 0.00 in
Snow Depth Not available.
UV 0 out of 12
Pollen 2.70 out of 12
Ozone Good
PM2.5 Moderate
Flu Activity Local Activity
METAR KJQF 250355Z AUTO 00000KT 7SM CLR 06/05 A3005 RMK AO2

More Conditions Fewer Conditions

Pressure 30.05 in
Visibility 7.0 miles
Clouds Clear
Dew Point 41 °F
Humidity 93%
Rainfall 0.00 in
Snow Depth Not available.
UV 0 out of 12
Pollen 2.70 out of 12
Ozone Good
PM2.5 Moderate
Flu Activity Local Activity
METAR KJQF 250355Z AUTO 00000KT 7SM CLR 06/05 A3005 RMK AO2

More Conditions Fewer Conditions

10-Day Weather Forecast

Almanac

Astronomy

Oct. 25, 2014 Rise Set
Actual Time 7:38 AM EDT 6:35 PM EDT
Civil Twilight 7:12 AM EDT 7:01 PM EDT
Nautical Twilight 6:42 AM EDT 7:31 PM EDT
Astronomical Twilight 6:13 AM EDT 8:01 PM EDT
Moon 9:13 AM EDT 8:00 PM EDT
Length of Visible Light 11h 49m
Length of Day
10h 57m
Tomorrow will be 2m 3s shorter.
New Moon, 2% of the Moon is Illuminated
Today
New Moon
Oct 30
First Quarter
Nov 6
Full
Nov 14
Last Quarter
Nov 22
New

Yesterday's Extremes

State Highs State Lows

Community

WunderPhotos

Upload Photos

1,764,779 photos uploaded!

Nearby

Air Quality

  Air Quality AQ Index Pollutant
Yesterday Good
PM2.5
Yesterday Good
OZONE
Current Moderate
PM2.5
Current Good
OZONE
Friday Good
PM2.5
Friday Good
OZONE
Saturday Moderate
PM2.5
Saturday Good
OZONE
Sunday Good
OZONE
Sunday Good
PM2.5
Monday Good
OZONE
Monday Good
PM2.5

Snow Depth

Station Depth Elevation
No new snow has been reported.

Earthquake Activity

City Distance Mag. Time & Date
No recent earthquake activity has been reported nearby.
Minimum magnitude displayed is 2.5.

Coastal Water Temperatures

Place Temperature
No Stations Reporting

Nearby Weather Stations